Terminal Aerodrome Forecast
Issued by NWS Louisville, KY

Home | Current Version | Previous Version | Text Only | Print | Product List | Glossary On
Versions: 1 2 3 4 5 6 7 8 9 10 11 12
000
FTUS43 KLMK 271700
TAFLEX
TAF
KLEX 271720Z 2718/2818 36005KT P6SM SCT025
      TEMPO 2718/2720 BKN025
     FM272000 36006KT P6SM BKN030
     FM280100 04006KT P6SM BKN150
     FM280900 08007KT P6SM BKN040=

USA.gov is the U.S. government's official web portal to all federal, state and local government web resources and services.